sensor_id;sensor_type;location;lat;lon;timestamp;temperature;humidity
21891;DHT22;11110;52.386;16.940;2023-07-29T00:01:42;31.80;51.90
21891;DHT22;11110;52.386;16.940;2023-07-29T00:04:12;31.80;52.00
21891;DHT22;11110;52.386;16.940;2023-07-29T00:06:40;31.80;52.00
21891;DHT22;11110;52.386;16.940;2023-07-29T00:09:10;31.70;52.00
21891;DHT22;11110;52.386;16.940;2023-07-29T00:11:39;31.70;52.00
21891;DHT22;11110;52.386;16.940;2023-07-29T00:14:08;31.60;51.90
21891;DHT22;11110;52.386;16.940;2023-07-29T00:16:36;31.70;52.10
21891;DHT22;11110;52.386;16.940;2023-07-29T00:19:06;31.70;52.10
21891;DHT22;11110;52.386;16.940;2023-07-29T00:21:34;31.60;52.10
21891;DHT22;11110;52.386;16.940;2023-07-29T00:24:03;31.60;52.20
21891;DHT22;11110;52.386;16.940;2023-07-29T00:26:33;31.60;52.30
21891;DHT22;11110;52.386;16.940;2023-07-29T00:29:02;31.60;52.40
21891;DHT22;11110;52.386;16.940;2023-07-29T00:31:30;31.60;52.50
21891;DHT22;11110;52.386;16.940;2023-07-29T00:33:59;31.60;52.40
21891;DHT22;11110;52.386;16.940;2023-07-29T00:36:27;31.50;52.40
21891;DHT22;11110;52.386;16.940;2023-07-29T00:38:56;31.50;52.40
21891;DHT22;11110;52.386;16.940;2023-07-29T00:41:25;31.50;52.50
21891;DHT22;11110;52.386;16.940;2023-07-29T00:43:55;31.50;52.30
21891;DHT22;11110;52.386;16.940;2023-07-29T00:46:24;31.60;52.30
21891;DHT22;11110;52.386;16.940;2023-07-29T00:48:53;31.50;52.30
21891;DHT22;11110;52.386;16.940;2023-07-29T00:51:23;31.50;52.40
21891;DHT22;11110;52.386;16.940;2023-07-29T00:53:52;31.50;52.30
21891;DHT22;11110;52.386;16.940;2023-07-29T00:56:20;31.50;52.30
21891;DHT22;11110;52.386;16.940;2023-07-29T00:58:49;31.50;52.40
21891;DHT22;11110;52.386;16.940;2023-07-29T01:01:20;31.50;52.60
21891;DHT22;11110;52.386;16.940;2023-07-29T01:03:48;31.50;52.60
21891;DHT22;11110;52.386;16.940;2023-07-29T01:06:26;31.40;52.40
21891;DHT22;11110;52.386;16.940;2023-07-29T01:09:02;31.50;52.60
21891;DHT22;11110;52.386;16.940;2023-07-29T01:11:38;31.40;52.40
21891;DHT22;11110;52.386;16.940;2023-07-29T01:14:17;31.40;52.50
21891;DHT22;11110;52.386;16.940;2023-07-29T01:16:52;31.40;52.40
21891;DHT22;11110;52.386;16.940;2023-07-29T01:19:42;31.40;52.50
21891;DHT22;11110;52.386;16.940;2023-07-29T01:22:11;31.40;52.50
21891;DHT22;11110;52.386;16.940;2023-07-29T01:24:43;31.30;52.60
21891;DHT22;11110;52.386;16.940;2023-07-29T01:27:11;31.30;52.50
21891;DHT22;11110;52.386;16.940;2023-07-29T01:29:40;31.30;52.50
21891;DHT22;11110;52.386;16.940;2023-07-29T01:32:11;31.30;52.50
21891;DHT22;11110;52.386;16.940;2023-07-29T01:34:45;31.20;52.50
21891;DHT22;11110;52.386;16.940;2023-07-29T01:37:19;31.30;52.60
21891;DHT22;11110;52.386;16.940;2023-07-29T01:39:53;31.30;52.50
21891;DHT22;11110;52.386;16.940;2023-07-29T01:42:23;31.30;52.60
21891;DHT22;11110;52.386;16.940;2023-07-29T01:44:53;31.10;52.50
21891;DHT22;11110;52.386;16.940;2023-07-29T01:47:21;31.10;52.50
21891;DHT22;11110;52.386;16.940;2023-07-29T01:49:51;31.10;52.40
21891;DHT22;11110;52.386;16.940;2023-07-29T01:52:19;31.10;52.30
21891;DHT22;11110;52.386;16.940;2023-07-29T01:54:48;31.10;52.40
21891;DHT22;11110;52.386;16.940;2023-07-29T01:57:18;31.20;52.70
21891;DHT22;11110;52.386;16.940;2023-07-29T01:59:47;31.10;52.40
21891;DHT22;11110;52.386;16.940;2023-07-29T02:02:15;31.10;52.30
21891;DHT22;11110;52.386;16.940;2023-07-29T02:04:43;31.00;52.20
21891;DHT22;11110;52.386;16.940;2023-07-29T02:07:18;31.10;52.20
21891;DHT22;11110;52.386;16.940;2023-07-29T02:09:47;31.00;52.20
21891;DHT22;11110;52.386;16.940;2023-07-29T02:12:17;31.00;52.20
21891;DHT22;11110;52.386;16.940;2023-07-29T02:14:46;31.00;52.10
21891;DHT22;11110;52.386;16.940;2023-07-29T02:17:14;31.00;52.10
21891;DHT22;11110;52.386;16.940;2023-07-29T02:19:43;30.90;52.20
21891;DHT22;11110;52.386;16.940;2023-07-29T02:22:13;30.90;52.30
21891;DHT22;11110;52.386;16.940;2023-07-29T02:24:42;30.90;52.40
21891;DHT22;11110;52.386;16.940;2023-07-29T02:27:11;30.90;52.30
21891;DHT22;11110;52.386;16.940;2023-07-29T02:29:41;30.90;52.30
21891;DHT22;11110;52.386;16.940;2023-07-29T02:32:09;30.80;52.20
21891;DHT22;11110;52.386;16.940;2023-07-29T02:34:38;30.80;52.30
21891;DHT22;11110;52.386;16.940;2023-07-29T02:37:07;30.80;52.30
21891;DHT22;11110;52.386;16.940;2023-07-29T02:39:36;30.70;52.00
21891;DHT22;11110;52.386;16.940;2023-07-29T02:42:04;30.70;52.00
21891;DHT22;11110;52.386;16.940;2023-07-29T02:44:33;30.70;51.70
21891;DHT22;11110;52.386;16.940;2023-07-29T02:47:03;30.70;51.70
21891;DHT22;11110;52.386;16.940;2023-07-29T02:49:32;30.70;51.70
21891;DHT22;11110;52.386;16.940;2023-07-29T02:52:00;30.60;51.90
21891;DHT22;11110;52.386;16.940;2023-07-29T02:54:29;30.60;52.00
21891;DHT22;11110;52.386;16.940;2023-07-29T02:56:57;30.50;51.90
21891;DHT22;11110;52.386;16.940;2023-07-29T02:59:26;30.60;52.00
21891;DHT22;11110;52.386;16.940;2023-07-29T03:01:54;30.60;52.00
21891;DHT22;11110;52.386;16.940;2023-07-29T03:04:24;30.50;51.90
21891;DHT22;11110;52.386;16.940;2023-07-29T03:06:52;30.50;51.80
21891;DHT22;11110;52.386;16.940;2023-07-29T03:09:21;30.50;51.90
21891;DHT22;11110;52.386;16.940;2023-07-29T03:11:49;30.50;51.70
21891;DHT22;11110;52.386;16.940;2023-07-29T03:14:20;30.50;51.70
21891;DHT22;11110;52.386;16.940;2023-07-29T03:16:48;30.40;51.60
21891;DHT22;11110;52.386;16.940;2023-07-29T03:19:17;30.40;51.70
21891;DHT22;11110;52.386;16.940;2023-07-29T03:21:47;30.40;51.70
21891;DHT22;11110;52.386;16.940;2023-07-29T03:24:16;30.40;51.70
21891;DHT22;11110;52.386;16.940;2023-07-29T03:26:45;30.30;51.60
21891;DHT22;11110;52.386;16.940;2023-07-29T03:29:13;30.30;51.70
21891;DHT22;11110;52.386;16.940;2023-07-29T03:31:42;30.30;51.60
21891;DHT22;11110;52.386;16.940;2023-07-29T03:34:10;30.30;51.50
21891;DHT22;11110;52.386;16.940;2023-07-29T03:36:43;30.30;51.50
21891;DHT22;11110;52.386;16.940;2023-07-29T03:39:14;30.20;51.50
21891;DHT22;11110;52.386;16.940;2023-07-29T03:41:43;30.30;51.50
21891;DHT22;11110;52.386;16.940;2023-07-29T03:44:12;30.20;51.30
21891;DHT22;11110;52.386;16.940;2023-07-29T03:46:41;30.30;51.30
21891;DHT22;11110;52.386;16.940;2023-07-29T03:49:11;30.30;51.10
21891;DHT22;11110;52.386;16.940;2023-07-29T03:51:39;30.30;51.20
21891;DHT22;11110;52.386;16.940;2023-07-29T03:54:08;30.30;51.50
21891;DHT22;11110;52.386;16.940;2023-07-29T03:56:37;30.30;51.60
21891;DHT22;11110;52.386;16.940;2023-07-29T03:59:06;30.30;51.60
21891;DHT22;11110;52.386;16.940;2023-07-29T04:01:35;30.30;51.60
21891;DHT22;11110;52.386;16.940;2023-07-29T04:04:03;30.30;51.60
21891;DHT22;11110;52.386;16.940;2023-07-29T04:06:32;30.20;51.60
21891;DHT22;11110;52.386;16.940;2023-07-29T04:09:02;30.20;51.70
21891;DHT22;11110;52.386;16.940;2023-07-29T04:11:30;30.30;51.80
21891;DHT22;11110;52.386;16.940;2023-07-29T04:14:00;30.20;52.40
21891;DHT22;11110;52.386;16.940;2023-07-29T04:16:29;30.30;51.90
21891;DHT22;11110;52.386;16.940;2023-07-29T04:18:57;30.30;51.90
21891;DHT22;11110;52.386;16.940;2023-07-29T04:21:26;30.40;52.10
21891;DHT22;11110;52.386;16.940;2023-07-29T04:23:54;30.40;52.00
21891;DHT22;11110;52.386;16.940;2023-07-29T04:26:23;30.40;52.00
21891;DHT22;11110;52.386;16.940;2023-07-29T04:28:51;30.40;52.00
21891;DHT22;11110;52.386;16.940;2023-07-29T04:31:21;30.40;52.20
21891;DHT22;11110;52.386;16.940;2023-07-29T04:33:50;30.40;52.20
21891;DHT22;11110;52.386;16.940;2023-07-29T04:36:18;30.30;52.20
21891;DHT22;11110;52.386;16.940;2023-07-29T04:38:47;30.30;52.30
21891;DHT22;11110;52.386;16.940;2023-07-29T04:41:15;30.40;52.50
21891;DHT22;11110;52.386;16.940;2023-07-29T04:43:44;30.40;52.40
21891;DHT22;11110;52.386;16.940;2023-07-29T04:46:12;30.40;52.40
21891;DHT22;11110;52.386;16.940;2023-07-29T04:48:42;30.40;52.40
21891;DHT22;11110;52.386;16.940;2023-07-29T04:51:10;30.40;52.40
21891;DHT22;11110;52.386;16.940;2023-07-29T04:53:40;30.40;52.40
21891;DHT22;11110;52.386;16.940;2023-07-29T04:56:08;30.40;52.40
21891;DHT22;11110;52.386;16.940;2023-07-29T04:58:37;30.40;52.50
21891;DHT22;11110;52.386;16.940;2023-07-29T05:01:06;30.40;52.30
21891;DHT22;11110;52.386;16.940;2023-07-29T05:03:35;30.50;52.30
21891;DHT22;11110;52.386;16.940;2023-07-29T05:06:06;30.50;52.40
21891;DHT22;11110;52.386;16.940;2023-07-29T05:08:35;30.50;52.40
21891;DHT22;11110;52.386;16.940;2023-07-29T05:11:03;30.50;52.40
21891;DHT22;11110;52.386;16.940;2023-07-29T05:13:32;30.50;52.50
21891;DHT22;11110;52.386;16.940;2023-07-29T05:16:00;30.60;52.70
21891;DHT22;11110;52.386;16.940;2023-07-29T05:18:29;30.50;52.60
21891;DHT22;11110;52.386;16.940;2023-07-29T05:20:57;30.60;52.80
21891;DHT22;11110;52.386;16.940;2023-07-29T05:23:27;30.60;53.00
21891;DHT22;11110;52.386;16.940;2023-07-29T05:25:56;30.60;53.00
21891;DHT22;11110;52.386;16.940;2023-07-29T05:28:25;30.50;52.20
21891;DHT22;11110;52.386;16.940;2023-07-29T05:30:53;30.70;52.90
21891;DHT22;11110;52.386;16.940;2023-07-29T05:33:22;30.70;52.90
21891;DHT22;11110;52.386;16.940;2023-07-29T05:35:50;30.70;52.90
21891;DHT22;11110;52.386;16.940;2023-07-29T05:38:19;30.80;52.80
21891;DHT22;11110;52.386;16.940;2023-07-29T05:40:49;30.80;53.10
21891;DHT22;11110;52.386;16.940;2023-07-29T05:43:18;30.80;53.10
21891;DHT22;11110;52.386;16.940;2023-07-29T05:45:46;30.90;53.20
21891;DHT22;11110;52.386;16.940;2023-07-29T05:48:15;30.90;53.30
21891;DHT22;11110;52.386;16.940;2023-07-29T05:50:47;30.90;53.30
21891;DHT22;11110;52.386;16.940;2023-07-29T05:53:16;31.00;53.30
21891;DHT22;11110;52.386;16.940;2023-07-29T05:55:44;31.00;53.30
21891;DHT22;11110;52.386;16.940;2023-07-29T05:58:14;31.00;53.30
21891;DHT22;11110;52.386;16.940;2023-07-29T06:00:43;31.10;53.20
21891;DHT22;11110;52.386;16.940;2023-07-29T06:03:11;31.20;53.40
21891;DHT22;11110;52.386;16.940;2023-07-29T06:05:41;31.10;53.40
21891;DHT22;11110;52.386;16.940;2023-07-29T06:08:09;31.20;53.40
21891;DHT22;11110;52.386;16.940;2023-07-29T06:10:38;31.10;53.20
21891;DHT22;11110;52.386;16.940;2023-07-29T06:13:07;31.30;53.20
21891;DHT22;11110;52.386;16.940;2023-07-29T06:15:37;31.20;53.00
21891;DHT22;11110;52.386;16.940;2023-07-29T06:18:05;31.40;53.10
21891;DHT22;11110;52.386;16.940;2023-07-29T06:20:35;31.40;53.30
21891;DHT22;11110;52.386;16.940;2023-07-29T06:23:04;31.30;53.40
21891;DHT22;11110;52.386;16.940;2023-07-29T06:25:33;31.40;53.30
21891;DHT22;11110;52.386;16.940;2023-07-29T06:28:01;31.50;53.20
21891;DHT22;11110;52.386;16.940;2023-07-29T06:30:30;31.50;53.20
21891;DHT22;11110;52.386;16.940;2023-07-29T06:33:00;31.60;53.20
21891;DHT22;11110;52.386;16.940;2023-07-29T06:35:30;31.60;53.10
21891;DHT22;11110;52.386;16.940;2023-07-29T06:37:58;31.60;52.80
21891;DHT22;11110;52.386;16.940;2023-07-29T06:40:27;31.70;52.90
21891;DHT22;11110;52.386;16.940;2023-07-29T06:42:55;31.70;53.00
21891;DHT22;11110;52.386;16.940;2023-07-29T06:45:24;31.70;52.90
21891;DHT22;11110;52.386;16.940;2023-07-29T06:47:52;31.70;52.90
21891;DHT22;11110;52.386;16.940;2023-07-29T06:50:22;31.80;53.00
21891;DHT22;11110;52.386;16.940;2023-07-29T06:52:51;31.80;53.00
21891;DHT22;11110;52.386;16.940;2023-07-29T06:55:19;31.80;52.80
21891;DHT22;11110;52.386;16.940;2023-07-29T06:57:47;31.80;52.70
21891;DHT22;11110;52.386;16.940;2023-07-29T07:00:16;31.90;52.70
21891;DHT22;11110;52.386;16.940;2023-07-29T07:02:44;31.90;52.70
21891;DHT22;11110;52.386;16.940;2023-07-29T07:05:13;31.90;52.70
21891;DHT22;11110;52.386;16.940;2023-07-29T07:07:43;32.00;52.80
21891;DHT22;11110;52.386;16.940;2023-07-29T07:10:11;32.00;52.80
21891;DHT22;11110;52.386;16.940;2023-07-29T07:12:40;32.00;52.70
21891;DHT22;11110;52.386;16.940;2023-07-29T07:15:09;32.00;52.80
21891;DHT22;11110;52.386;16.940;2023-07-29T07:17:37;32.00;52.70
21891;DHT22;11110;52.386;16.940;2023-07-29T07:20:07;32.00;52.60
21891;DHT22;11110;52.386;16.940;2023-07-29T07:22:35;32.10;52.80
21891;DHT22;11110;52.386;16.940;2023-07-29T07:25:06;32.00;52.80
21891;DHT22;11110;52.386;16.940;2023-07-29T07:27:35;32.10;52.70
21891;DHT22;11110;52.386;16.940;2023-07-29T07:30:05;32.10;52.60
21891;DHT22;11110;52.386;16.940;2023-07-29T07:32:33;32.10;52.80
21891;DHT22;11110;52.386;16.940;2023-07-29T07:35:02;32.10;52.80
21891;DHT22;11110;52.386;16.940;2023-07-29T07:37:31;32.10;53.00
21891;DHT22;11110;52.386;16.940;2023-07-29T07:40:00;32.10;53.20
21891;DHT22;11110;52.386;16.940;2023-07-29T07:42:29;32.10;53.00
21891;DHT22;11110;52.386;16.940;2023-07-29T07:44:58;32.10;53.50
21891;DHT22;11110;52.386;16.940;2023-07-29T07:47:26;32.10;52.80
21891;DHT22;11110;52.386;16.940;2023-07-29T07:49:55;32.10;53.10
21891;DHT22;11110;52.386;16.940;2023-07-29T07:52:23;32.20;53.00
21891;DHT22;11110;52.386;16.940;2023-07-29T07:54:52;32.20;53.20
21891;DHT22;11110;52.386;16.940;2023-07-29T07:57:21;32.20;52.60
21891;DHT22;11110;52.386;16.940;2023-07-29T07:59:51;32.30;52.60
21891;DHT22;11110;52.386;16.940;2023-07-29T08:02:20;32.30;51.80
21891;DHT22;11110;52.386;16.940;2023-07-29T08:04:48;32.30;51.90
21891;DHT22;11110;52.386;16.940;2023-07-29T08:07:17;32.30;51.60
21891;DHT22;11110;52.386;16.940;2023-07-29T08:09:45;32.30;51.80
21891;DHT22;11110;52.386;16.940;2023-07-29T08:12:14;32.40;51.60
21891;DHT22;11110;52.386;16.940;2023-07-29T08:14:46;32.40;51.80
21891;DHT22;11110;52.386;16.940;2023-07-29T08:17:15;32.40;51.30
21891;DHT22;11110;52.386;16.940;2023-07-29T08:19:44;32.40;51.40
21891;DHT22;11110;52.386;16.940;2023-07-29T08:22:12;32.40;51.40
21891;DHT22;11110;52.386;16.940;2023-07-29T08:24:41;32.50;51.50
21891;DHT22;11110;52.386;16.940;2023-07-29T08:27:09;32.60;52.00
21891;DHT22;11110;52.386;16.940;2023-07-29T08:29:38;32.60;52.20
21891;DHT22;11110;52.386;16.940;2023-07-29T08:32:07;32.60;51.50
21891;DHT22;11110;52.386;16.940;2023-07-29T08:34:37;32.60;51.90
21891;DHT22;11110;52.386;16.940;2023-07-29T08:37:06;32.70;51.60
21891;DHT22;11110;52.386;16.940;2023-07-29T08:39:34;32.80;51.40
21891;DHT22;11110;52.386;16.940;2023-07-29T08:42:04;32.70;50.90
21891;DHT22;11110;52.386;16.940;2023-07-29T08:44:42;32.80;50.90
21891;DHT22;11110;52.386;16.940;2023-07-29T08:47:12;33.00;50.80
21891;DHT22;11110;52.386;16.940;2023-07-29T08:49:43;32.90;50.30
21891;DHT22;11110;52.386;16.940;2023-07-29T08:52:14;32.90;50.50
21891;DHT22;11110;52.386;16.940;2023-07-29T08:54:42;33.00;51.20
21891;DHT22;11110;52.386;16.940;2023-07-29T08:57:11;33.00;50.70
21891;DHT22;11110;52.386;16.940;2023-07-29T08:59:40;33.00;50.10
21891;DHT22;11110;52.386;16.940;2023-07-29T09:02:09;33.10;50.20
21891;DHT22;11110;52.386;16.940;2023-07-29T09:04:38;33.30;50.20
21891;DHT22;11110;52.386;16.940;2023-07-29T09:07:08;33.10;49.60
21891;DHT22;11110;52.386;16.940;2023-07-29T09:09:37;33.20;49.50
21891;DHT22;11110;52.386;16.940;2023-07-29T09:12:07;33.30;49.60
21891;DHT22;11110;52.386;16.940;2023-07-29T09:14:36;33.30;49.60
21891;DHT22;11110;52.386;16.940;2023-07-29T09:17:07;33.30;49.10
21891;DHT22;11110;52.386;16.940;2023-07-29T09:19:35;33.40;49.50
21891;DHT22;11110;52.386;16.940;2023-07-29T09:22:04;33.50;49.50
21891;DHT22;11110;52.386;16.940;2023-07-29T09:24:34;33.60;49.50
21891;DHT22;11110;52.386;16.940;2023-07-29T09:27:02;33.60;48.40
21891;DHT22;11110;52.386;16.940;2023-07-29T09:29:31;33.70;48.10
21891;DHT22;11110;52.386;16.940;2023-07-29T09:32:17;33.70;48.30
21891;DHT22;11110;52.386;16.940;2023-07-29T09:34:46;33.80;48.60
21891;DHT22;11110;52.386;16.940;2023-07-29T09:37:16;33.80;48.20
21891;DHT22;11110;52.386;16.940;2023-07-29T09:39:47;33.80;48.00
21891;DHT22;11110;52.386;16.940;2023-07-29T09:42:18;33.90;48.60
21891;DHT22;11110;52.386;16.940;2023-07-29T09:44:48;33.90;46.80
21891;DHT22;11110;52.386;16.940;2023-07-29T09:47:20;34.00;47.80
21891;DHT22;11110;52.386;16.940;2023-07-29T09:49:49;34.10;47.60
21891;DHT22;11110;52.386;16.940;2023-07-29T09:52:19;34.10;47.70
21891;DHT22;11110;52.386;16.940;2023-07-29T09:54:49;34.20;47.40
21891;DHT22;11110;52.386;16.940;2023-07-29T09:57:19;34.20;47.80
21891;DHT22;11110;52.386;16.940;2023-07-29T09:59:53;34.30;47.60
21891;DHT22;11110;52.386;16.940;2023-07-29T10:02:22;34.30;47.60
21891;DHT22;11110;52.386;16.940;2023-07-29T10:04:52;34.30;47.10
21891;DHT22;11110;52.386;16.940;2023-07-29T10:07:21;34.40;47.60
21891;DHT22;11110;52.386;16.940;2023-07-29T10:09:52;34.40;47.60
21891;DHT22;11110;52.386;16.940;2023-07-29T10:12:22;34.50;47.90
21891;DHT22;11110;52.386;16.940;2023-07-29T10:14:51;34.60;46.90
21891;DHT22;11110;52.386;16.940;2023-07-29T10:17:21;34.60;46.00
21891;DHT22;11110;52.386;16.940;2023-07-29T10:19:50;34.70;46.50
21891;DHT22;11110;52.386;16.940;2023-07-29T10:22:20;34.70;46.60
21891;DHT22;11110;52.386;16.940;2023-07-29T10:24:54;34.80;46.40
21891;DHT22;11110;52.386;16.940;2023-07-29T10:27:24;34.90;46.30
21891;DHT22;11110;52.386;16.940;2023-07-29T10:29:55;34.90;46.50
21891;DHT22;11110;52.386;16.940;2023-07-29T10:32:25;35.00;46.40
21891;DHT22;11110;52.386;16.940;2023-07-29T10:34:54;35.00;47.00
21891;DHT22;11110;52.386;16.940;2023-07-29T10:37:23;35.00;45.90
21891;DHT22;11110;52.386;16.940;2023-07-29T10:39:54;35.10;45.70
21891;DHT22;11110;52.386;16.940;2023-07-29T10:42:23;35.20;46.00
21891;DHT22;11110;52.386;16.940;2023-07-29T10:44:52;35.20;45.80
21891;DHT22;11110;52.386;16.940;2023-07-29T10:47:23;35.20;45.60
21891;DHT22;11110;52.386;16.940;2023-07-29T10:49:53;35.30;45.80
21891;DHT22;11110;52.386;16.940;2023-07-29T10:52:30;35.30;45.00
21891;DHT22;11110;52.386;16.940;2023-07-29T10:55:01;35.40;45.40
21891;DHT22;11110;52.386;16.940;2023-07-29T10:57:32;35.40;44.80
21891;DHT22;11110;52.386;16.940;2023-07-29T11:00:02;35.40;44.70
21891;DHT22;11110;52.386;16.940;2023-07-29T11:02:33;35.50;45.00
21891;DHT22;11110;52.386;16.940;2023-07-29T11:05:05;35.50;44.80
21891;DHT22;11110;52.386;16.940;2023-07-29T11:07:44;35.60;43.90
21891;DHT22;11110;52.386;16.940;2023-07-29T11:10:14;35.70;45.10
21891;DHT22;11110;52.386;16.940;2023-07-29T11:12:44;35.70;45.00
21891;DHT22;11110;52.386;16.940;2023-07-29T11:15:22;35.80;44.70
21891;DHT22;11110;52.386;16.940;2023-07-29T11:17:53;35.80;44.10
21891;DHT22;11110;52.386;16.940;2023-07-29T11:20:23;35.80;44.20
21891;DHT22;11110;52.386;16.940;2023-07-29T11:22:53;35.80;43.00
21891;DHT22;11110;52.386;16.940;2023-07-29T11:25:24;35.90;43.30
21891;DHT22;11110;52.386;16.940;2023-07-29T11:27:54;35.90;42.90
21891;DHT22;11110;52.386;16.940;2023-07-29T11:30:23;36.00;42.80
21891;DHT22;11110;52.386;16.940;2023-07-29T11:32:54;36.00;42.80
21891;DHT22;11110;52.386;16.940;2023-07-29T11:35:23;36.10;42.60
21891;DHT22;11110;52.386;16.940;2023-07-29T11:37:53;36.20;41.90
21891;DHT22;11110;52.386;16.940;2023-07-29T11:40:23;36.20;42.00
21891;DHT22;11110;52.386;16.940;2023-07-29T11:42:52;36.30;41.40
21891;DHT22;11110;52.386;16.940;2023-07-29T11:45:22;36.30;41.10
21891;DHT22;11110;52.386;16.940;2023-07-29T11:48:06;36.40;41.40
21891;DHT22;11110;52.386;16.940;2023-07-29T11:50:35;36.40;41.40
21891;DHT22;11110;52.386;16.940;2023-07-29T11:53:04;36.50;41.00
21891;DHT22;11110;52.386;16.940;2023-07-29T11:55:34;36.60;40.90
21891;DHT22;11110;52.386;16.940;2023-07-29T11:58:04;36.60;41.20
21891;DHT22;11110;52.386;16.940;2023-07-29T12:00:33;36.60;41.00
21891;DHT22;11110;52.386;16.940;2023-07-29T12:03:02;36.70;41.00
21891;DHT22;11110;52.386;16.940;2023-07-29T12:05:31;36.70;41.10
21891;DHT22;11110;52.386;16.940;2023-07-29T12:08:00;36.70;41.40
21891;DHT22;11110;52.386;16.940;2023-07-29T12:10:29;36.70;41.40
21891;DHT22;11110;52.386;16.940;2023-07-29T12:12:59;36.80;41.50
21891;DHT22;11110;52.386;16.940;2023-07-29T12:15:30;36.70;41.40
21891;DHT22;11110;52.386;16.940;2023-07-29T12:17:59;36.70;41.40
21891;DHT22;11110;52.386;16.940;2023-07-29T12:20:29;36.80;41.80
21891;DHT22;11110;52.386;16.940;2023-07-29T12:22:59;36.90;41.90
21891;DHT22;11110;52.386;16.940;2023-07-29T12:25:30;36.90;42.00
21891;DHT22;11110;52.386;16.940;2023-07-29T12:28:03;36.90;41.50
21891;DHT22;11110;52.386;16.940;2023-07-29T12:30:32;37.00;41.20
21891;DHT22;11110;52.386;16.940;2023-07-29T12:33:01;37.00;41.40
21891;DHT22;11110;52.386;16.940;2023-07-29T12:35:36;37.10;41.70
21891;DHT22;11110;52.386;16.940;2023-07-29T12:38:05;37.30;41.50
21891;DHT22;11110;52.386;16.940;2023-07-29T12:40:38;37.30;41.70
21891;DHT22;11110;52.386;16.940;2023-07-29T12:43:08;37.40;41.30
21891;DHT22;11110;52.386;16.940;2023-07-29T12:45:37;37.40;40.40
21891;DHT22;11110;52.386;16.940;2023-07-29T12:48:07;37.50;40.00
21891;DHT22;11110;52.386;16.940;2023-07-29T12:50:36;37.50;39.90
21891;DHT22;11110;52.386;16.940;2023-07-29T12:53:06;37.60;39.80
21891;DHT22;11110;52.386;16.940;2023-07-29T12:55:35;37.70;39.50
21891;DHT22;11110;52.386;16.940;2023-07-29T12:58:03;37.70;39.50
21891;DHT22;11110;52.386;16.940;2023-07-29T13:00:33;37.60;39.30
21891;DHT22;11110;52.386;16.940;2023-07-29T13:03:02;37.70;39.30
21891;DHT22;11110;52.386;16.940;2023-07-29T13:05:33;37.70;39.80
21891;DHT22;11110;52.386;16.940;2023-07-29T13:08:02;37.60;39.50
21891;DHT22;11110;52.386;16.940;2023-07-29T13:10:30;37.60;39.30
21891;DHT22;11110;52.386;16.940;2023-07-29T13:12:59;37.60;39.10
21891;DHT22;11110;52.386;16.940;2023-07-29T13:15:28;37.50;39.20
21891;DHT22;11110;52.386;16.940;2023-07-29T13:17:58;37.50;39.70
21891;DHT22;11110;52.386;16.940;2023-07-29T13:20:26;37.50;39.40
21891;DHT22;11110;52.386;16.940;2023-07-29T13:22:55;37.40;39.50
21891;DHT22;11110;52.386;16.940;2023-07-29T13:25:23;37.40;39.90
21891;DHT22;11110;52.386;16.940;2023-07-29T13:27:51;37.40;39.70
21891;DHT22;11110;52.386;16.940;2023-07-29T13:30:20;37.50;39.90
21891;DHT22;11110;52.386;16.940;2023-07-29T13:32:48;37.50;39.60
21891;DHT22;11110;52.386;16.940;2023-07-29T13:35:18;37.50;39.50
21891;DHT22;11110;52.386;16.940;2023-07-29T13:37:47;37.50;39.30
21891;DHT22;11110;52.386;16.940;2023-07-29T13:40:16;37.50;39.30
21891;DHT22;11110;52.386;16.940;2023-07-29T13:42:44;37.50;39.10
21891;DHT22;11110;52.386;16.940;2023-07-29T13:45:12;37.40;38.90
21891;DHT22;11110;52.386;16.940;2023-07-29T13:47:41;37.40;39.40
21891;DHT22;11110;52.386;16.940;2023-07-29T13:50:10;37.30;39.90
21891;DHT22;11110;52.386;16.940;2023-07-29T13:52:40;37.30;40.80
21891;DHT22;11110;52.386;16.940;2023-07-29T13:55:09;37.20;40.60
21891;DHT22;11110;52.386;16.940;2023-07-29T13:57:38;37.00;41.30
21891;DHT22;11110;52.386;16.940;2023-07-29T14:00:08;36.90;42.40
21891;DHT22;11110;52.386;16.940;2023-07-29T14:02:39;36.70;43.10
21891;DHT22;11110;52.386;16.940;2023-07-29T14:05:08;36.50;43.60
21891;DHT22;11110;52.386;16.940;2023-07-29T14:07:40;36.40;44.00
21891;DHT22;11110;52.386;16.940;2023-07-29T14:10:08;36.30;44.50
21891;DHT22;11110;52.386;16.940;2023-07-29T14:12:37;36.10;44.50
21891;DHT22;11110;52.386;16.940;2023-07-29T14:15:07;35.80;44.90
21891;DHT22;11110;52.386;16.940;2023-07-29T14:17:36;35.70;45.40
21891;DHT22;11110;52.386;16.940;2023-07-29T14:20:05;35.50;46.20
21891;DHT22;11110;52.386;16.940;2023-07-29T14:22:35;35.50;46.20
21891;DHT22;11110;52.386;16.940;2023-07-29T14:25:06;35.50;46.70
21891;DHT22;11110;52.386;16.940;2023-07-29T14:27:35;35.50;47.70
21891;DHT22;11110;52.386;16.940;2023-07-29T14:30:04;35.60;47.70
21891;DHT22;11110;52.386;16.940;2023-07-29T14:32:33;35.60;48.00
21891;DHT22;11110;52.386;16.940;2023-07-29T14:35:01;35.80;48.80
21891;DHT22;11110;52.386;16.940;2023-07-29T14:37:31;35.90;48.80
21891;DHT22;11110;52.386;16.940;2023-07-29T14:39:59;36.00;49.10
21891;DHT22;11110;52.386;16.940;2023-07-29T14:42:29;36.10;48.50
21891;DHT22;11110;52.386;16.940;2023-07-29T14:45:01;36.20;49.70
21891;DHT22;11110;52.386;16.940;2023-07-29T14:47:30;36.20;48.90
21891;DHT22;11110;52.386;16.940;2023-07-29T14:50:02;36.30;48.90
21891;DHT22;11110;52.386;16.940;2023-07-29T14:52:31;36.30;49.40
21891;DHT22;11110;52.386;16.940;2023-07-29T14:54:59;36.40;48.90
21891;DHT22;11110;52.386;16.940;2023-07-29T14:57:29;36.40;48.80
21891;DHT22;11110;52.386;16.940;2023-07-29T14:59:57;36.50;48.30
21891;DHT22;11110;52.386;16.940;2023-07-29T15:02:26;36.60;49.10
21891;DHT22;11110;52.386;16.940;2023-07-29T15:04:55;36.70;48.20
21891;DHT22;11110;52.386;16.940;2023-07-29T15:07:23;36.80;48.60
21891;DHT22;11110;52.386;16.940;2023-07-29T15:09:51;36.90;48.80
21891;DHT22;11110;52.386;16.940;2023-07-29T15:12:20;37.00;48.20
21891;DHT22;11110;52.386;16.940;2023-07-29T15:14:50;37.10;48.60
21891;DHT22;11110;52.386;16.940;2023-07-29T15:17:18;37.20;49.40
21891;DHT22;11110;52.386;16.940;2023-07-29T15:19:47;37.10;48.30
21891;DHT22;11110;52.386;16.940;2023-07-29T15:22:16;37.10;47.30
21891;DHT22;11110;52.386;16.940;2023-07-29T15:24:45;37.10;48.50
21891;DHT22;11110;52.386;16.940;2023-07-29T15:27:13;37.20;47.80
21891;DHT22;11110;52.386;16.940;2023-07-29T15:29:42;37.10;46.80